Time;durP1;ratioP1;P1;durP2;ratioP2;P2;SDS_P1;SDS_P2;PMS_P1;PMS_P2;Temp;Humidity;BMP_temperature;BMP_pressure;BME280_temperature;BME280_humidity;BME280_pressure;Samples;Min_cycle;Max_cycle;Signal;HPM_P1;HPM_P2
2022/08/15 00:01:22;;;;;;;0.93;0.80;;;;;;;24.87;52.70;99047.16;4945609;28;20544;-52
2022/08/15 00:03:53;;;;;;;5.90;1.43;;;;;;;24.81;53.85;99036.97;4943046;28;20928;-53
2022/08/15 00:06:45;;;;;;;1.53;1.13;;;;;;;24.79;54.85;99036.25;4959942;28;20489;-52
2022/08/15 00:09:18;;;;;;;3.23;1.07;;;;;;;24.59;54.87;99026.69;4944436;29;20450;-52
2022/08/15 00:11:49;;;;;;;6.73;1.00;;;;;;;24.42;53.34;99023.91;4944257;28;20531;-52
2022/08/15 00:14:20;;;;;;;1.40;0.97;;;;;;;24.42;53.88;99029.34;4956872;28;20455;-52
2022/08/15 00:17:07;;;;;;;9.00;1.03;;;;;;;24.42;54.97;99033.91;4955189;28;20456;-53
2022/08/15 00:19:39;;;;;;;1.43;1.23;;;;;;;24.43;55.99;99030.19;4949285;29;20451;-53
2022/08/15 00:22:09;;;;;;;0.90;0.80;;;;;;;24.42;55.14;99028.50;4956694;28;20455;-53
2022/08/15 00:24:46;;;;;;;1.10;0.97;;;;;;;24.36;55.67;99023.69;4943639;28;20452;-52
2022/08/15 00:27:20;;;;;;;1.37;1.27;;;;;;;24.40;56.24;99028.66;4956740;28;20443;-53
2022/08/15 00:29:53;;;;;;;1.13;1.03;;;;;;;24.26;55.97;99031.06;4943708;28;20831;-52
2022/08/15 00:32:25;;;;;;;1.10;1.00;;;;;;;24.30;55.88;99036.06;4961259;28;20824;-52
2022/08/15 00:38:09;;;;;;;1.10;1.00;;;;;;;24.17;57.49;99035.63;4943612;29;20470;-53
2022/08/15 00:43:56;;;;;;;1.13;1.03;;;;;;;24.26;56.38;99041.94;4943701;28;20466;-52
2022/08/15 00:46:25;;;;;;;0.70;0.60;;;;;;;24.61;53.20;99038.22;4955769;29;20538;-52
2022/08/15 00:48:53;;;;;;;1.30;1.00;;;;;;;24.65;52.24;99028.72;4956024;29;20455;-53
2022/08/15 00:51:43;;;;;;;3.90;1.43;;;;;;;24.81;51.80;99028.81;4943522;29;20466;-52
2022/08/15 00:54:25;;;;;;;0.70;0.60;;;;;;;24.99;51.34;99032.25;4943487;28;20534;-52
2022/08/15 00:57:18;;;;;;;1.23;1.10;;;;;;;24.98;51.50;99040.56;4956197;28;20443;-52
2022/08/15 01:00:15;;;;;;;1.00;0.83;;;;;;;25.31;51.36;99041.50;4952134;29;20444;-52
2022/08/15 01:03:00;;;;;;;1.13;1.03;;;;;;;25.22;51.25;99040.66;4950679;28;20459;-52
2022/08/15 01:05:28;;;;;;;1.30;1.20;;;;;;;25.04;52.31;99037.19;4948939;29;20495;-52
2022/08/15 01:07:56;;;;;;;1.60;1.10;;;;;;;25.04;52.59;99037.19;4963402;28;20467;-52
2022/08/15 01:10:23;;;;;;;1.10;1.00;;;;;;;24.98;52.68;99048.72;4942832;29;20552;-52
2022/08/15 01:12:51;;;;;;;2.53;1.17;;;;;;;24.90;53.10;99046.81;4942941;29;20455;-52
2022/08/15 01:15:20;;;;;;;23.03;1.03;;;;;;;24.84;53.52;99042.06;4942740;28;20519;-52
2022/08/15 01:18:07;;;;;;;1.23;1.13;;;;;;;24.66;53.76;99053.03;4955869;28;20458;-52
2022/08/15 01:20:58;;;;;;;0.90;0.90;;;;;;;24.66;54.82;99052.16;4950062;28;20455;-52
2022/08/15 01:23:41;;;;;;;1.67;1.13;;;;;;;24.56;55.29;99057.75;4949128;29;20455;-52
2022/08/15 01:26:22;;;;;;;3.37;1.27;;;;;;;24.47;55.78;99062.28;4955406;28;20499;-52
2022/08/15 01:29:08;;;;;;;1.00;0.90;;;;;;;24.46;56.52;99057.88;4943391;29;20949;-52
2022/08/15 01:31:36;;;;;;;1.67;1.50;;;;;;;24.41;57.00;99053.97;4942410;28;20466;-52
2022/08/15 01:34:13;;;;;;;2.30;1.00;;;;;;;24.55;56.69;99058.78;4955232;28;20933;-52
2022/08/15 01:36:44;;;;;;;3.13;1.67;;;;;;;24.45;58.10;99061.59;4952013;28;20495;-52
2022/08/15 01:39:38;;;;;;;2.20;0.93;;;;;;;24.46;59.36;99066.03;4945826;29;20455;-52
2022/08/15 01:42:18;;;;;;;10.63;2.47;;;;;;;24.95;58.41;99059.94;4943004;29;20463;-52
2022/08/15 01:45:00;;;;;;;1.90;1.17;;;;;;;24.88;58.82;99065.16;4942143;28;20901;-52
2022/08/15 01:47:32;;;;;;;2.23;1.77;;;;;;;24.74;59.82;99063.09;4954917;28;20491;-52
2022/08/15 01:50:13;;;;;;;1.10;1.00;;;;;;;24.69;60.54;99057.31;4949771;28;20453;-52
2022/08/15 01:53:15;;;;;;;6.40;1.23;;;;;;;24.63;61.19;99066.94;4951501;29;21021;-52
2022/08/15 01:55:48;;;;;;;1.33;1.23;;;;;;;24.62;61.55;99064.41;4956130;28;20473;-53
2022/08/15 01:58:21;;;;;;;4.63;1.23;;;;;;;24.85;61.04;99067.38;4943753;29;20459;-51
2022/08/15 02:01:01;;;;;;;1.30;1.20;;;;;;;24.57;62.14;99069.47;4953759;28;20447;-51
2022/08/15 02:03:34;;;;;;;1.17;1.03;;;;;;;24.55;62.65;99071.50;4946555;28;20820;-52
2022/08/15 02:06:24;;;;;;;1.33;1.23;;;;;;;24.66;62.37;99071.19;4944297;28;20569;-52
2022/08/15 02:09:05;;;;;;;2.40;1.80;;;;;;;24.76;62.43;99070.06;4958815;28;20455;-52
2022/08/15 02:11:53;;;;;;;1.93;1.00;;;;;;;24.75;62.35;99073.78;4945984;29;20455;-52
2022/08/15 02:14:29;;;;;;;1.73;1.63;;;;;;;24.64;63.34;99073.22;4954618;28;20451;-52
2022/08/15 02:17:05;;;;;;;1.17;1.07;;;;;;;24.84;62.81;99074.69;4941913;28;20930;-52
2022/08/15 02:19:32;;;;;;;1.33;1.23;;;;;;;24.70;63.47;99072.59;4954546;28;20506;-52
2022/08/15 02:22:12;;;;;;;1.33;1.23;;;;;;;24.65;64.27;99067.63;4952503;28;20477;-52
2022/08/15 02:24:53;;;;;;;2.70;1.70;;;;;;;24.52;64.98;99069.94;4946033;29;20467;-52
2022/08/15 02:27:19;;;;;;;2.50;1.63;;;;;;;24.54;64.62;99075.25;4954344;28;20499;-52
2022/08/15 02:29:47;;;;;;;2.50;1.10;;;;;;;24.53;64.75;99071.66;4943296;28;20487;-51
2022/08/15 02:32:19;;;;;;;3.00;1.47;;;;;;;24.93;63.60;99080.97;4953830;29;20455;-52
2022/08/15 02:34:59;;;;;;;1.70;1.17;;;;;;;24.64;64.34;99079.50;4954168;28;20542;-52
2022/08/15 02:37:26;;;;;;;1.17;1.07;;;;;;;24.48;65.79;99082.16;4942420;29;21012;-52
2022/08/15 02:39:52;;;;;;;1.43;1.23;;;;;;;24.43;65.32;99082.66;4954298;28;20452;-52
2022/08/15 02:42:25;;;;;;;22.57;2.50;;;;;;;24.84;64.40;99092.88;4946087;28;20448;-51
2022/08/15 02:44:52;;;;;;;3.50;1.30;;;;;;;24.63;64.58;99083.25;4949749;29;20480;-52
2022/08/15 02:47:19;;;;;;;2.00;1.50;;;;;;;24.79;63.50;99087.91;4954234;28;20980;-51
2022/08/15 02:49:52;;;;;;;0.83;0.67;;;;;;;24.57;64.81;99077.63;4941493;28;20518;-53
2022/08/15 02:52:18;;;;;;;2.50;1.20;;;;;;;24.51;65.12;99082.69;4954285;28;20463;-52
2022/08/15 02:54:48;;;;;;;1.30;1.20;;;;;;;24.71;64.19;99085.16;4950766;29;20484;-52
2022/08/15 02:57:27;;;;;;;22.23;1.27;;;;;;;24.41;65.11;99081.97;4948354;29;20447;-51
2022/08/15 02:59:54;;;;;;;1.40;1.00;;;;;;;24.57;64.58;99085.78;4941890;28;20459;-52
2022/08/15 03:02:20;;;;;;;2.43;0.73;;;;;;;24.70;63.93;99081.59;4954117;28;20462;-53
2022/08/15 03:04:57;;;;;;;1.97;0.60;;;;;;;24.79;63.69;99087.91;4954157;28;20471;-53
2022/08/15 03:07:23;;;;;;;3.60;1.70;;;;;;;24.94;63.56;99086.25;4965982;28;20496;-52
2022/08/15 03:09:50;;;;;;;1.33;1.20;;;;;;;24.57;64.51;99083.91;4950802;29;20456;-52
2022/08/15 03:12:23;;;;;;;6.83;1.47;;;;;;;24.76;64.12;99085.50;4953358;29;20450;-52
2022/08/15 03:14:59;;;;;;;1.50;1.40;;;;;;;24.38;65.38;99076.84;4957673;28;20510;-52
2022/08/15 03:17:28;;;;;;;5.40;1.20;;;;;;;24.43;65.53;99077.22;4945107;29;20447;-52
2022/08/15 03:19:54;;;;;;;10.60;1.00;;;;;;;24.66;64.74;99074.75;4957596;28;20507;-52
2022/08/15 03:22:24;;;;;;;1.57;1.10;;;;;;;24.32;65.73;99077.50;4953746;28;20454;-52
2022/08/15 03:25:11;;;;;;;1.90;1.20;;;;;;;24.47;65.27;99070.44;4951893;29;20471;-52
2022/08/15 03:27:40;;;;;;;1.00;0.83;;;;;;;24.29;65.75;99066.94;4957401;29;20549;-53
2022/08/15 03:30:10;;;;;;;5.03;1.30;;;;;;;24.49;65.08;99073.84;4944872;29;20456;-52
2022/08/15 03:32:54;;;;;;;0.90;0.90;;;;;;;24.42;65.16;99082.81;4957696;28;20480;-52
2022/08/15 03:35:23;;;;;;;1.60;1.50;;;;;;;24.64;64.68;99075.94;4953785;28;20480;-52
2022/08/15 03:37:59;;;;;;;13.60;1.20;;;;;;;24.27;65.62;99090.69;4949707;29;20449;-53
2022/08/15 03:40:32;;;;;;;1.67;1.00;;;;;;;24.22;65.78;99090.28;4944857;29;20538;-53
2022/08/15 03:43:03;;;;;;;0.70;0.63;;;;;;;24.38;65.85;99087.69;4944526;28;20456;-52
2022/08/15 03:45:45;;;;;;;0.80;0.53;;;;;;;24.24;65.78;99080.13;4957339;28;20467;-52
2022/08/15 03:48:15;;;;;;;1.20;0.83;;;;;;;24.51;64.99;99087.25;4953615;28;20566;-52
2022/08/15 03:50:53;;;;;;;1.57;1.10;;;;;;;24.23;66.39;99089.28;4949397;29;20451;-52
2022/08/15 03:53:27;;;;;;;2.33;1.33;;;;;;;24.11;66.94;99080.53;4957290;28;20447;-53
2022/08/15 03:55:56;;;;;;;1.17;0.87;;;;;;;24.07;67.73;99089.19;4944596;28;20476;-53
2022/08/15 03:58:27;;;;;;;3.73;0.93;;;;;;;24.06;67.81;99087.47;4949395;29;20448;-53
2022/08/15 04:01:05;;;;;;;4.40;1.47;;;;;;;24.02;68.14;99092.38;4953362;29;20961;-53
2022/08/15 04:03:31;;;;;;;1.00;0.83;;;;;;;23.90;68.42;99090.94;4948121;29;20462;-53
2022/08/15 04:06:06;;;;;;;8.80;1.83;;;;;;;24.04;67.62;99089.50;4953437;29;20474;-52
2022/08/15 04:08:35;;;;;;;3.37;1.50;;;;;;;23.86;68.33;99087.69;4957305;28;20487;-52
2022/08/15 04:11:23;;;;;;;2.00;0.97;;;;;;;23.88;68.04;99093.81;4944481;29;20458;-52
2022/08/15 04:14:06;;;;;;;5.50;1.53;;;;;;;23.75;68.62;99090.66;4943989;29;20462;-52
2022/08/15 04:16:52;;;;;;;2.73;0.70;;;;;;;23.73;69.49;99089.09;4957451;28;20460;-53
2022/08/15 04:19:36;;;;;;;7.63;1.13;;;;;;;23.83;68.98;99098.84;4945421;29;20487;-52
2022/08/15 04:22:15;;;;;;;4.20;1.07;;;;;;;24.00;68.60;99096.28;4943860;29;20447;-53
2022/08/15 04:25:18;;;;;;;1.27;0.80;;;;;;;24.02;68.69;99091.53;4956596;28;20988;-53
2022/08/15 04:27:47;;;;;;;1.20;1.10;;;;;;;24.13;68.32;99091.28;4953167;29;20495;-53
2022/08/15 04:30:20;;;;;;;3.37;1.70;;;;;;;23.94;68.88;99089.59;4943642;29;21065;-53
2022/08/15 04:32:46;;;;;;;1.50;1.40;;;;;;;23.86;69.03;99095.84;4956479;28;20461;-52
2022/08/15 04:35:25;;;;;;;1.47;1.37;;;;;;;23.90;68.74;99099.06;4948208;29;20563;-53
2022/08/15 04:37:57;;;;;;;4.00;1.60;;;;;;;23.79;69.15;99108.31;4956385;28;20534;-52
2022/08/15 04:40:24;;;;;;;3.43;1.70;;;;;;;23.79;69.74;99099.31;4950427;28;20960;-53
2022/08/15 04:43:11;;;;;;;0.77;0.70;;;;;;;23.82;69.58;99086.28;4939389;29;20449;-53
2022/08/15 04:45:40;;;;;;;1.90;1.73;;;;;;;24.15;68.36;99100.97;4953148;28;20480;-53
2022/08/15 04:48:12;;;;;;;4.00;1.67;;;;;;;23.86;69.17;99103.13;4943087;29;20487;-52
2022/08/15 04:50:49;;;;;;;1.97;1.70;;;;;;;23.99;68.98;99108.16;4956305;28;20852;-53
2022/08/15 04:53:20;;;;;;;2.50;1.17;;;;;;;24.26;68.06;99113.44;4951024;28;20452;-53
2022/08/15 04:55:58;;;;;;;1.80;1.70;;;;;;;24.09;68.80;99117.88;4945524;29;20491;-52
2022/08/15 04:58:27;;;;;;;2.87;1.27;;;;;;;24.10;68.28;99111.44;4949314;29;20448;-52
2022/08/15 05:01:14;;;;;;;3.40;1.17;;;;;;;24.40;67.94;99115.59;4947565;28;20455;-53
2022/08/15 05:03:41;;;;;;;4.30;1.13;;;;;;;24.28;68.01;99118.69;4947957;28;20448;-52
2022/08/15 05:06:09;;;;;;;12.17;1.33;;;;;;;24.07;69.00;99129.91;4950695;28;20832;-53
2022/08/15 05:08:56;;;;;;;5.70;1.83;;;;;;;24.09;69.10;99126.03;4949436;29;20444;-52
2022/08/15 05:11:23;;;;;;;1.10;1.00;;;;;;;24.32;68.19;99123.69;4942725;29;20455;-53
2022/08/15 05:13:49;;;;;;;6.40;1.07;;;;;;;24.06;68.25;99128.22;4949652;28;20459;-53
2022/08/15 05:16:15;;;;;;;1.40;0.73;;;;;;;24.03;69.32;99126.66;4949582;28;20484;-53
2022/08/15 05:18:43;;;;;;;7.43;1.57;;;;;;;24.08;69.03;99129.75;4951886;29;20514;-52
2022/08/15 05:21:12;;;;;;;3.37;1.43;;;;;;;24.10;69.84;99126.88;4944882;28;20444;-52
2022/08/15 05:23:42;;;;;;;3.40;1.13;;;;;;;24.05;70.15;99130.06;4945903;29;20448;-53
2022/08/15 05:26:12;;;;;;;1.23;1.07;;;;;;;23.99;70.95;99135.31;4946955;28;20893;-53
2022/08/15 05:28:59;;;;;;;3.10;1.30;;;;;;;24.44;68.71;99133.25;4943740;29;20437;-54
2022/08/15 05:31:27;;;;;;;1.43;1.27;;;;;;;24.37;69.80;99134.06;4945384;28;20451;-52
2022/08/15 05:34:03;;;;;;;2.53;1.50;;;;;;;24.22;71.21;99129.16;4946053;29;20946;-52
2022/08/15 05:36:33;;;;;;;1.70;1.60;;;;;;;24.12;71.59;99131.16;4946241;29;20511;-53
2022/08/15 05:39:09;;;;;;;1.10;1.00;;;;;;;24.19;72.56;99129.50;4941658;28;20451;-52
2022/08/15 05:41:50;;;;;;;1.50;1.40;;;;;;;24.05;72.73;99123.78;4949962;28;20456;-52
2022/08/15 05:44:24;;;;;;;3.63;0.90;;;;;;;24.12;72.68;99123.00;4946457;29;20448;-53
2022/08/15 05:47:35;;;;;;;2.80;1.60;;;;;;;24.30;71.54;99122.13;4945501;28;20465;-53
2022/08/15 05:50:14;;;;;;;1.13;0.83;;;;;;;24.09;72.80;99126.03;4944268;29;20523;-52
2022/08/15 05:53:02;;;;;;;4.40;1.00;;;;;;;24.33;72.81;99116.38;4945859;28;20546;-52
2022/08/15 05:55:45;;;;;;;1.33;1.07;;;;;;;24.48;71.35;99117.47;4943738;29;20547;-53
2022/08/15 05:58:28;;;;;;;5.23;1.93;;;;;;;24.27;72.95;99119.72;4942766;29;20967;-52
2022/08/15 06:01:18;;;;;;;10.53;1.40;;;;;;;23.79;74.43;99119.19;4945885;29;20441;-51
2022/08/15 06:03:58;;;;;;;2.33;1.00;;;;;;;24.05;73.90;99123.78;4943896;28;20447;-52
2022/08/15 06:06:30;;;;;;;1.90;1.60;;;;;;;24.04;73.71;99131.09;4947206;28;20479;-52
2022/08/15 06:09:20;;;;;;;2.13;1.53;;;;;;;24.21;72.89;99126.63;4945925;28;20733;-53
2022/08/15 06:11:53;;;;;;;1.13;1.03;;;;;;;23.92;74.40;99125.06;4947593;29;20459;-52
2022/08/15 06:14:33;;;;;;;1.00;0.90;;;;;;;24.29;73.47;99125.84;4941779;28;20447;-53
2022/08/15 06:17:32;;;;;;;6.17;2.20;;;;;;;24.00;74.84;99123.44;4943446;29;20483;-54
2022/08/15 06:20:03;;;;;;;2.00;0.83;;;;;;;24.15;75.27;99124.56;4942424;29;20920;-52
2022/08/15 06:22:59;;;;;;;9.93;2.33;;;;;;;24.05;74.53;99130.06;4945724;29;20463;-53
2022/08/15 06:25:59;;;;;;;8.27;1.50;;;;;;;23.92;74.59;99122.34;4940748;28;20507;-53
2022/08/15 06:29:04;;;;;;;1.33;1.20;;;;;;;23.64;76.85;99126.16;4943712;29;20491;-54
2022/08/15 06:31:36;;;;;;;1.13;1.03;;;;;;;23.90;75.37;99126.22;4943683;29;20793;-52
2022/08/15 06:34:12;;;;;;;1.27;1.03;;;;;;;23.77;76.26;99123.91;4943284;29;20444;-54
2022/08/15 06:37:10;;;;;;;4.00;1.53;;;;;;;23.64;76.88;99126.16;4942097;28;20816;-52
2022/08/15 06:40:06;;;;;;;2.47;1.50;;;;;;;23.71;76.64;99126.38;4953920;28;20457;-53
2022/08/15 06:42:39;;;;;;;2.80;1.30;;;;;;;23.53;77.28;99120.94;4939552;29;20543;-53
2022/08/15 06:45:20;;;;;;;2.43;1.30;;;;;;;23.32;78.41;99127.53;4952159;29;20471;-54
2022/08/15 06:47:53;;;;;;;9.50;1.70;;;;;;;23.60;77.69;99120.22;4953689;29;20498;-54
2022/08/15 06:50:36;;;;;;;1.10;1.00;;;;;;;23.93;76.72;99126.75;4943427;29;20530;-53
2022/08/15 06:53:11;;;;;;;2.70;1.27;;;;;;;23.64;78.01;99137.03;4951621;29;20470;-53
2022/08/15 06:56:04;;;;;;;2.50;1.13;;;;;;;23.69;77.17;99140.09;4945770;28;20477;-54
2022/08/15 06:58:52;;;;;;;1.80;1.20;;;;;;;23.51;78.07;99142.78;4943370;29;20811;-54
2022/08/15 07:01:53;;;;;;;1.97;1.77;;;;;;;23.47;78.19;99145.97;4949052;28;20960;-53
2022/08/15 07:05:04;;;;;;;37.53;2.07;;;;;;;23.34;78.86;99141.78;4947662;29;20459;-53
2022/08/15 07:07:56;;;;;;;1.50;1.40;;;;;;;23.32;79.56;99143.81;4960907;28;20500;-53
2022/08/15 07:10:42;;;;;;;8.03;1.73;;;;;;;23.47;78.84;99146.84;4941839;29;20958;-53
2022/08/15 07:13:23;;;;;;;9.60;1.50;;;;;;;23.42;79.64;99148.28;4943701;29;20455;-54
2022/08/15 07:15:56;;;;;;;5.40;1.20;;;;;;;23.38;78.88;99142.31;4940957;28;20491;-54
2022/08/15 07:18:45;;;;;;;1.03;0.90;;;;;;;23.42;77.99;99137.44;4954065;29;20450;-53
2022/08/15 07:21:19;;;;;;;0.80;0.73;;;;;;;23.50;77.86;99141.09;4943357;29;21020;-53
2022/08/15 07:24:31;;;;;;;1.13;1.03;;;;;;;23.46;77.92;99142.41;4940865;29;20463;-53
2022/08/15 07:27:04;;;;;;;1.30;1.20;;;;;;;23.47;77.98;99145.97;4953515;29;21010;-53
2022/08/15 07:29:48;;;;;;;9.40;1.07;;;;;;;23.52;77.24;99155.34;4943605;29;20459;-54
2022/08/15 07:32:29;;;;;;;2.23;1.33;;;;;;;23.66;76.68;99161.28;4941200;29;20948;-54
2022/08/15 07:35:14;;;;;;;1.60;1.30;;;;;;;23.53;77.63;99161.63;4940858;29;20551;-53
2022/08/15 07:37:47;;;;;;;1.40;1.30;;;;;;;23.65;76.88;99168.56;4950616;28;20524;-54
2022/08/15 07:40:14;;;;;;;7.60;1.60;;;;;;;23.51;77.30;99166.38;4944730;28;20459;-54
2022/08/15 07:42:44;;;;;;;13.03;1.50;;;;;;;23.62;77.51;99171.59;4951787;29;20486;-54
2022/08/15 07:45:37;;;;;;;1.17;1.10;;;;;;;24.00;76.57;99180.44;4946401;28;20472;-54
2022/08/15 07:48:20;;;;;;;2.47;1.33;;;;;;;23.32;78.95;99175.50;4947186;29;20495;-55
2022/08/15 07:51:16;;;;;;;1.43;1.33;;;;;;;23.42;78.33;99180.84;4945334;29;20482;-55
2022/08/15 07:54:22;;;;;;;3.87;1.20;;;;;;;23.30;79.24;99170.22;4938877;28;20455;-54
2022/08/15 07:57:04;;;;;;;1.20;1.00;;;;;;;23.55;78.08;99170.47;4947026;28;20451;-54
2022/08/15 07:59:36;;;;;;;6.73;2.63;;;;;;;23.55;78.50;99170.47;4957386;28;20443;-53
2022/08/15 08:02:29;;;;;;;1.60;1.50;;;;;;;23.39;78.99;99181.16;4957696;28;20494;-54
2022/08/15 08:05:04;;;;;;;6.47;1.20;;;;;;;23.29;79.32;99183.91;4946281;28;20474;-54
2022/08/15 08:07:36;;;;;;;2.20;1.43;;;;;;;23.19;80.01;99191.28;4966724;28;20577;-54
2022/08/15 08:10:32;;;;;;;1.93;1.83;;;;;;;23.19;79.77;99186.69;4957441;28;20483;-53
2022/08/15 08:13:18;;;;;;;4.10;1.13;;;;;;;23.33;80.12;99190.75;4950133;28;20452;-53
2022/08/15 08:15:56;;;;;;;0.70;0.67;;;;;;;23.48;79.86;99196.53;4941242;29;20482;-54
2022/08/15 08:18:56;;;;;;;1.40;1.30;;;;;;;23.39;79.65;99205.56;4956522;28;20545;-53
2022/08/15 08:21:44;;;;;;;1.23;0.90;;;;;;;23.18;80.71;99200.41;4941543;29;20463;-53
2022/08/15 08:24:53;;;;;;;1.10;0.70;;;;;;;23.24;80.35;99202.50;4948485;29;20456;-52
2022/08/15 08:27:43;;;;;;;1.93;1.33;;;;;;;23.37;80.17;99194.00;4954088;29;20495;-53
2022/08/15 08:30:24;;;;;;;3.70;1.50;;;;;;;23.34;79.34;99203.31;4947166;28;20880;-54
2022/08/15 08:33:31;;;;;;;5.40;1.57;;;;;;;23.59;78.52;99218.91;4952077;28;20547;-52
2022/08/15 08:36:21;;;;;;;1.60;1.50;;;;;;;23.58;78.14;99219.06;4955665;28;20482;-53
2022/08/15 08:39:21;;;;;;;1.70;1.17;;;;;;;23.32;79.13;99221.59;4945215;29;20451;-53
2022/08/15 08:42:06;;;;;;;1.80;1.33;;;;;;;23.46;79.39;99226.50;4943527;29;20539;-52
2022/08/15 08:45:18;;;;;;;2.70;1.47;;;;;;;23.61;79.12;99235.88;4956190;28;20447;-53
2022/08/15 08:48:07;;;;;;;1.40;1.30;;;;;;;23.62;79.64;99232.16;4943928;29;20483;-52
2022/08/15 08:50:41;;;;;;;8.10;1.63;;;;;;;23.45;82.29;99232.94;4945963;29;21011;-52
2022/08/15 08:53:29;;;;;;;1.50;1.33;;;;;;;23.59;83.90;99231.63;4943213;29;20513;-52
2022/08/15 08:56:22;;;;;;;1.20;1.10;;;;;;;23.49;85.38;99230.78;4956259;28;20475;-52
2022/08/15 08:59:18;;;;;;;9.10;1.00;;;;;;;23.76;85.13;99236.19;4946646;29;20450;-54
2022/08/15 09:01:50;;;;;;;5.30;1.07;;;;;;;23.72;84.15;99236.66;4934089;29;20473;-54
2022/08/15 09:04:22;;;;;;;1.43;1.33;;;;;;;23.55;82.73;99235.59;4942332;29;20483;-54
2022/08/15 09:06:52;;;;;;;4.37;2.63;;;;;;;23.29;83.85;99243.56;4963692;28;20475;-53
2022/08/15 09:09:35;;;;;;;1.30;1.13;;;;;;;23.36;82.95;99247.41;4954655;28;21016;-53
2022/08/15 09:15:12;;;;;;;1.87;1.50;;;;;;;23.64;80.47;99246.41;4946530;28;20487;-52
2022/08/15 09:17:45;;;;;;;1.77;1.67;;;;;;;23.27;82.27;99243.72;4942743;29;20530;-52
2022/08/15 09:20:33;;;;;;;1.60;1.40;;;;;;;23.41;81.64;99242.38;4956479;28;20448;-53
2022/08/15 09:23:04;;;;;;;1.63;1.53;;;;;;;23.64;80.58;99245.56;4946113;28;20452;-53
2022/08/15 09:25:33;;;;;;;1.50;1.40;;;;;;;23.60;80.56;99239.59;4952432;29;20472;-52
2022/08/15 09:28:21;;;;;;;1.63;1.27;;;;;;;23.49;81.52;99239.78;4955291;28;20498;-52
2022/08/15 09:31:04;;;;;;;1.90;1.13;;;;;;;23.38;81.58;99233.69;4944495;29;20459;-52
2022/08/15 09:33:31;;;;;;;1.30;1.17;;;;;;;23.49;80.89;99231.63;4942480;28;20462;-52
2022/08/15 09:36:15;;;;;;;1.10;1.00;;;;;;;23.58;80.02;99241.63;4955345;28;20485;-52
2022/08/15 09:39:22;;;;;;;1.87;1.77;;;;;;;23.66;81.12;99237.28;4942738;29;20475;-51
2022/08/15 09:41:55;;;;;;;3.20;3.00;;;;;;;23.86;86.91;99239.72;4939830;28;20455;-52
2022/08/15 09:44:34;;;;;;;1.17;1.10;;;;;;;24.05;88.92;99245.97;4946646;29;20455;-54
2022/08/15 09:47:32;;;;;;;1.47;1.37;;;;;;;23.86;90.70;99242.41;4954686;28;20901;-51
2022/08/15 09:50:27;;;;;;;11.63;2.00;;;;;;;23.45;92.76;99232.09;4942139;29;21068;-52
2022/08/15 09:53:24;;;;;;;2.30;1.63;;;;;;;23.84;90.83;99238.97;4941939;29;20522;-53
2022/08/15 09:56:19;;;;;;;1.60;1.50;;;;;;;23.26;91.88;99231.19;4954603;28;21023;-53
2022/08/15 09:59:19;;;;;;;5.43;2.43;;;;;;;23.64;92.20;99238.28;4943276;29;20543;-53
2022/08/15 10:01:53;;;;;;;3.00;2.20;;;;;;;23.63;92.42;99233.84;4943414;29;20458;-54
2022/08/15 10:04:40;;;;;;;1.70;1.60;;;;;;;23.73;92.32;99232.94;4944167;29;20462;-52
2022/08/15 10:07:06;;;;;;;14.30;1.67;;;;;;;23.94;89.49;99228.91;4946081;28;20455;-52
2022/08/15 10:10:04;;;;;;;2.13;2.03;;;;;;;24.11;90.07;99229.06;4949954;29;20531;-53
2022/08/15 10:12:37;;;;;;;2.50;1.40;;;;;;;24.49;86.65;99226.00;4948181;29;20452;-53
2022/08/15 10:15:30;;;;;;;1.40;1.30;;;;;;;24.33;85.13;99222.31;4938261;28;21076;-54
2022/08/15 10:17:57;;;;;;;2.50;0.97;;;;;;;24.84;81.40;99220.66;4943889;29;20448;-52
2022/08/15 10:20:28;;;;;;;2.30;2.10;;;;;;;24.72;82.57;99225.50;4941576;29;20452;-52
2022/08/15 10:23:01;;;;;;;2.43;1.50;;;;;;;24.92;81.59;99218.81;4954303;28;20451;-53
2022/08/15 10:25:36;;;;;;;1.63;1.53;;;;;;;24.80;79.91;99231.81;4951512;28;20480;-51
2022/08/15 10:28:11;;;;;;;2.63;1.50;;;;;;;24.77;81.46;99234.84;4953443;29;20497;-52
2022/08/15 10:31:02;;;;;;;1.47;1.37;;;;;;;24.67;82.02;99227.81;4943750;29;20447;-52
2022/08/15 10:33:34;;;;;;;7.03;2.00;;;;;;;24.46;80.98;99222.75;4941629;29;20457;-52
2022/08/15 10:36:03;;;;;;;2.20;2.00;;;;;;;24.74;81.52;99228.91;4954229;28;20513;-53
2022/08/15 10:38:46;;;;;;;1.90;1.80;;;;;;;25.19;78.45;99222.38;4948599;28;20535;-52
2022/08/15 10:41:21;;;;;;;8.30;1.20;;;;;;;25.03;78.38;99225.88;4948256;29;20458;-52
2022/08/15 10:44:00;;;;;;;1.57;1.47;;;;;;;25.00;79.20;99228.88;4943169;29;20461;-51
2022/08/15 10:46:35;;;;;;;1.70;1.60;;;;;;;25.44;78.85;99228.75;4941399;28;20501;-52
2022/08/15 10:49:30;;;;;;;1.40;1.10;;;;;;;25.30;76.85;99231.09;4953700;28;21059;-53
2022/08/15 10:52:16;;;;;;;1.17;1.07;;;;;;;25.06;78.43;99242.72;4939101;29;20539;-52
2022/08/15 10:55:13;;;;;;;3.03;1.80;;;;;;;24.84;75.06;99245.13;4941183;28;20451;-52
2022/08/15 10:57:46;;;;;;;1.33;1.23;;;;;;;24.97;73.86;99248.25;4951584;28;20937;-52
2022/08/15 11:00:33;;;;;;;2.20;1.10;;;;;;;25.03;72.15;99253.06;4953936;28;20443;-53
2022/08/15 11:03:38;;;;;;;1.20;1.10;;;;;;;24.87;72.68;99248.34;4941680;29;20510;-53
2022/08/15 11:06:25;;;;;;;11.83;1.67;;;;;;;24.65;74.56;99252.44;4945491;28;20485;-53
2022/08/15 11:09:09;;;;;;;4.20;2.10;;;;;;;24.56;75.57;99261.56;4960414;28;20495;-53
2022/08/15 11:11:39;;;;;;;1.20;1.10;;;;;;;24.52;76.83;99261.00;4943551;29;20539;-52
2022/08/15 11:14:17;;;;;;;1.30;1.20;;;;;;;24.20;77.98;99266.16;4941024;29;20837;-52
2022/08/15 11:16:56;;;;;;;3.90;1.53;;;;;;;24.21;77.59;99276.84;4952833;28;20501;-51
2022/08/15 11:19:28;;;;;;;0.80;0.80;;;;;;;23.75;77.86;99275.22;4947894;29;20448;-52
2022/08/15 11:22:32;;;;;;;2.37;1.23;;;;;;;23.50;87.42;99276.75;4949307;29;20471;-52
2022/08/15 11:25:04;;;;;;;0.80;0.77;;;;;;;23.08;89.07;99276.38;4952958;28;20554;-52
2022/08/15 11:27:35;;;;;;;1.17;0.60;;;;;;;22.65;91.58;99288.56;4948380;28;20451;-52
2022/08/15 11:30:06;;;;;;;1.83;0.70;;;;;;;22.47;95.71;99288.44;4943495;29;20954;-53
2022/08/15 11:32:49;;;;;;;1.47;0.80;;;;;;;22.15;97.82;99282.47;4946237;29;20549;-52
2022/08/15 11:35:25;;;;;;;0.97;0.90;;;;;;;21.93;99.47;99282.69;4943173;28;20498;-52
2022/08/15 11:37:56;;;;;;;4.30;1.43;;;;;;;21.82;100.00;99289.97;4956055;28;20502;-52
2022/08/15 11:40:33;;;;;;;1.30;1.20;;;;;;;21.77;100.00;99280.53;4950845;28;20452;-52
2022/08/15 11:43:02;;;;;;;0.93;0.80;;;;;;;21.57;100.00;99283.22;4949790;29;20462;-52
2022/08/15 11:45:43;;;;;;;0.70;0.70;;;;;;;22.00;100.00;99275.75;4944455;29;20565;-52
2022/08/15 11:48:28;;;;;;;1.63;1.53;;;;;;;21.71;100.00;99279.25;4942710;28;20499;-53
2022/08/15 11:51:09;;;;;;;1.50;1.40;;;;;;;21.77;100.00;99276.00;4956130;28;20447;-52
2022/08/15 11:53:43;;;;;;;4.43;1.43;;;;;;;22.23;100.00;99265.53;4943397;29;20463;-52
2022/08/15 11:56:22;;;;;;;4.60;1.67;;;;;;;22.12;100.00;99271.94;4944842;28;20518;-52
2022/08/15 11:59:18;;;;;;;1.27;0.80;;;;;;;22.64;100.00;99269.75;4943826;28;20448;-52
2022/08/15 12:02:10;;;;;;;1.63;1.53;;;;;;;23.01;99.47;99273.38;4944448;29;20455;-52
2022/08/15 12:05:15;;;;;;;1.37;1.27;;;;;;;22.94;100.00;99266.84;4948340;28;20471;-51
2022/08/15 12:08:04;;;;;;;1.90;1.80;;;;;;;22.91;100.00;99278.00;4961914;28;20458;-52
2022/08/15 12:11:00;;;;;;;0.70;0.70;;;;;;;23.72;100.00;99277.38;4951982;28;20455;-52
2022/08/15 12:13:26;;;;;;;1.13;0.90;;;;;;;23.94;99.23;99274.22;4944571;29;20483;-51
2022/08/15 12:15:59;;;;;;;1.23;1.13;;;;;;;23.83;98.50;99277.13;4917813;28;1088892;-51
2022/08/15 12:18:31;;;;;;;1.20;0.90;;;;;;;24.27;97.08;99264.53;4949566;28;20711;-51
2022/08/15 12:21:17;;;;;;;9.63;2.57;;;;;;;24.30;93.98;99272.41;4955309;29;20444;-51
2022/08/15 12:23:54;;;;;;;1.73;1.63;;;;;;;24.67;91.81;99265.88;4943388;29;20466;-52
2022/08/15 12:26:25;;;;;;;9.87;2.37;;;;;;;24.56;92.58;99263.44;4955561;28;20471;-52
2022/08/15 12:29:11;;;;;;;1.37;1.27;;;;;;;24.92;88.71;99261.47;4944214;28;20587;-51
2022/08/15 12:31:41;;;;;;;2.50;1.67;;;;;;;24.79;90.59;99264.59;4943430;29;20456;-52
2022/08/15 12:34:22;;;;;;;1.23;1.13;;;;;;;24.46;91.03;99264.38;4953030;28;20448;-51
2022/08/15 12:37:00;;;;;;;1.30;1.20;;;;;;;24.65;91.14;99266.03;4942174;29;20444;-51
2022/08/15 12:39:32;;;;;;;1.50;1.13;;;;;;;24.51;89.85;99263.88;4956221;28;20538;-50